createdAt,value
2022-08-03T05:25:33.129Z,18.00
2022-08-03T05:30:33.544Z,18.20
2022-08-03T05:35:56.811Z,18.50
2022-08-03T05:40:46.854Z,18.80
2022-08-03T05:57:44.073Z,19.50
2022-08-03T06:02:40.292Z,19.60
2022-08-03T06:19:36.873Z,22.40
2022-08-03T06:24:30.518Z,22.40
2022-08-03T06:29:24.128Z,22.70
2022-08-03T06:34:34.261Z,23.00
2022-08-03T06:39:30.841Z,22.70
2022-08-03T06:44:24.372Z,22.40
2022-08-03T06:58:42.765Z,21.90
2022-08-03T07:03:36.802Z,22.00
2022-08-03T07:08:48.504Z,22.10
2022-08-03T07:13:45.457Z,22.40
2022-08-03T07:18:40.055Z,22.50
2022-08-03T07:23:33.593Z,22.70
2022-08-03T07:39:57.690Z,23.50
2022-08-03T07:44:51.630Z,23.60
2022-08-03T07:49:45.619Z,23.80
2022-08-03T07:54:39.473Z,24.10
2022-08-03T08:10:14.968Z,24.70
2022-08-03T08:15:10.570Z,24.90
2022-08-03T08:20:04.635Z,25.00
2022-08-03T08:25:00.162Z,25.30
2022-08-03T08:40:06.957Z,25.70
2022-08-03T08:45:01.923Z,25.80
2022-08-03T08:50:09.334Z,25.90
2022-08-03T08:55:07.395Z,26.00
2022-08-03T09:00:02.133Z,26.20
2022-08-03T09:04:56.654Z,26.40
2022-08-03T09:10:10.162Z,26.60
2022-08-03T09:15:28.333Z,26.80
2022-08-03T09:20:23.924Z,27.20
2022-08-03T09:25:25.190Z,27.30
2022-08-03T09:30:33.837Z,27.50
2022-08-03T09:35:53.122Z,27.80
2022-08-03T09:40:45.420Z,28.00
2022-08-03T09:45:40.345Z,28.20
2022-08-03T09:50:57.098Z,28.40
2022-08-03T09:56:30.892Z,28.60
2022-08-03T10:01:24.036Z,28.80
2022-08-03T10:06:22.519Z,29.00
2022-08-03T10:11:31.806Z,29.40
2022-08-03T10:16:25.937Z,29.50
2022-08-03T10:21:21.771Z,29.30
2022-08-03T10:26:20.609Z,29.60
2022-08-03T10:31:15.358Z,29.90
2022-08-03T10:36:11.051Z,30.20
2022-08-03T10:41:09.481Z,30.50
2022-08-03T10:46:04.618Z,30.80
2022-08-03T10:50:58.420Z,30.90
2022-08-03T10:56:09.489Z,30.90
2022-08-03T11:01:06.197Z,31.30
2022-08-03T11:06:19.339Z,31.50
2022-08-03T11:11:28.779Z,31.50
2022-08-03T11:16:25.103Z,31.60
2022-08-03T11:21:18.965Z,32.00
2022-08-03T11:26:14.600Z,32.20
2022-08-03T11:31:51.605Z,32.70
2022-08-03T11:37:27.498Z,32.90
2022-08-03T11:42:41.910Z,32.90
2022-08-03T11:47:50.690Z,33.30
2022-08-03T11:52:44.921Z,33.40
2022-08-03T11:59:13.150Z,33.80
2022-08-03T12:02:59.405Z,33.70
2022-08-03T12:08:03.239Z,34.20
2022-08-03T12:12:58.921Z,34.50
2022-08-03T12:17:57.398Z,33.90
2022-08-03T12:22:53.360Z,34.30
2022-08-03T12:27:47.303Z,34.70
2022-08-03T12:32:41.043Z,35.10
2022-08-03T12:37:35.320Z,35.30
2022-08-03T12:42:34.895Z,34.90
2022-08-03T12:47:28.689Z,35.10
2022-08-03T12:52:24.091Z,35.70
2022-08-03T12:57:18.143Z,35.80
2022-08-03T13:02:19.299Z,35.80
2022-08-03T13:07:18.383Z,35.30
2022-08-03T13:12:14.769Z,35.40
2022-08-03T13:17:08.836Z,35.80
2022-08-03T13:22:12.456Z,36.00
2022-08-03T13:27:22.000Z,36.20
2022-08-03T13:32:21.999Z,36.40
2022-08-03T13:37:17.702Z,36.30
2022-08-03T13:42:11.500Z,36.40
2022-08-03T13:47:05.696Z,36.40
2022-08-03T13:52:01.492Z,36.40
2022-08-03T13:57:00.579Z,36.20
2022-08-03T14:02:10.184Z,36.30
2022-08-03T14:07:04.231Z,36.50
2022-08-03T14:12:05.300Z,36.60
2022-08-03T14:17:02.101Z,36.80
2022-08-03T14:22:06.393Z,36.90
2022-08-03T14:27:08.620Z,37.10
2022-08-03T14:32:11.694Z,37.30
2022-08-03T14:37:06.668Z,36.90
2022-08-03T14:42:01.678Z,36.80
2022-08-03T14:46:55.603Z,37.00
2022-08-03T14:51:53.783Z,37.00
2022-08-03T14:56:47.816Z,36.80
2022-08-03T15:02:06.042Z,36.70
2022-08-03T15:06:56.368Z,36.80
2022-08-03T15:11:50.267Z,37.00
2022-08-03T15:16:47.738Z,36.90
2022-08-03T15:21:47.015Z,36.70
2022-08-03T15:26:41.871Z,36.60
2022-08-03T15:31:35.628Z,36.50
2022-08-03T15:36:30.579Z,36.60
2022-08-03T15:41:24.096Z,36.70
2022-08-03T15:46:33.549Z,36.90
2022-08-03T15:51:27.283Z,37.00
2022-08-03T15:56:22.288Z,36.30
2022-08-03T16:01:19.615Z,36.20
2022-08-03T16:06:13.835Z,36.00
2022-08-03T16:11:07.546Z,35.50
2022-08-03T16:16:04.079Z,34.80
2022-08-03T16:20:57.586Z,35.10
2022-08-03T16:25:53.051Z,35.10
2022-08-03T16:30:48.363Z,35.30
2022-08-03T16:35:43.804Z,35.10
2022-08-03T16:40:37.389Z,35.20
2022-08-03T16:45:31.118Z,35.00
2022-08-03T16:50:25.376Z,34.80
2022-08-03T16:55:49.123Z,34.60
2022-08-03T17:00:41.833Z,34.40
2022-08-03T17:05:43.875Z,34.40
2022-08-03T17:10:45.852Z,34.20
2022-08-03T17:16:00.678Z,33.70
2022-08-03T17:20:58.457Z,33.10
2022-08-03T17:26:01.994Z,32.60
2022-08-03T17:31:23.273Z,32.20
2022-08-03T17:36:36.992Z,31.80
2022-08-03T17:41:50.090Z,31.30
2022-08-03T17:46:44.539Z,31.00
2022-08-03T17:51:52.896Z,30.60
2022-08-03T17:56:54.530Z,30.30
2022-08-03T18:02:29.581Z,30.10
2022-08-03T18:07:41.331Z,29.80
2022-08-03T18:12:46.569Z,29.50
2022-08-03T18:17:55.094Z,29.10
2022-08-03T18:22:52.268Z,28.60
2022-08-03T18:27:49.931Z,28.30
2022-08-03T18:38:01.585Z,27.80
2022-08-03T18:42:58.001Z,27.70
2022-08-03T18:48:12.392Z,27.70
2022-08-03T18:53:19.776Z,27.50
2022-08-03T18:58:21.270Z,27.40
2022-08-03T19:03:22.110Z,26.90
2022-08-03T19:08:18.796Z,26.50
2022-08-03T19:13:30.975Z,26.40
2022-08-03T19:18:30.971Z,26.30
2022-08-03T19:23:25.578Z,26.00
2022-08-03T19:28:19.832Z,25.90
2022-08-03T19:33:29.897Z,25.90
2022-08-03T19:38:28.740Z,25.80
2022-08-03T19:48:52.027Z,25.50
2022-08-03T19:53:48.310Z,25.40
2022-08-03T19:58:44.196Z,25.20
2022-08-03T20:03:43.315Z,25.00
2022-08-03T20:08:44.030Z,25.00
2022-08-03T20:13:39.294Z,24.90
2022-08-03T20:18:38.916Z,24.80
2022-08-03T20:23:37.261Z,24.70
2022-08-03T20:28:34.473Z,24.60
2022-08-03T21:12:58.266Z,28.00
2022-08-03T21:13:02.803Z,25.70
2022-08-03T21:13:07.168Z,24.50
